Time;durP1;ratioP1;P1;durP2;ratioP2;P2;SDS_P1;SDS_P2;PMS_P1;PMS_P2;Temp;Humidity;BMP_temperature;BMP_pressure;BME280_temperature;BME280_humidity;BME280_pressure;Samples;Min_cycle;Max_cycle;Signal;HPM_P1;HPM_P2
2024/01/25 00:00:03;;;;;;;21.73;5.15;;;;;;;;;;509671;29;1372;-77
2024/01/25 00:00:19;;;;;;;20.58;5.35;;;;;;;;;;509581;29;1197;-76
2024/01/25 00:00:34;;;;;;;19.03;4.87;;;;;;;;;;511973;28;1470;-77
2024/01/25 00:00:50;;;;;;;18.83;4.82;;;;;;;;;;509182;29;1368;-77
2024/01/25 00:01:05;;;;;;;20.50;4.90;;;;;;;;;;508081;29;2277;-76
2024/01/25 00:01:20;;;;;;;18.67;4.70;;;;;;;;;;507642;29;1089;-77
2024/01/25 00:01:35;;;;;;;16.02;4.43;;;;;;;;;;510017;29;1442;-77
2024/01/25 00:01:51;;;;;;;15.73;4.20;;;;;;;;;;510496;29;1287;-77
2024/01/25 00:02:06;;;;;;;17.43;4.43;;;;;;;;;;509567;29;1437;-77
2024/01/25 00:02:21;;;;;;;20.33;4.78;;;;;;;;;;512999;28;1357;-77
2024/01/25 00:02:37;;;;;;;19.27;4.40;;;;;;;;;;512555;28;1924;-77
2024/01/25 00:02:52;;;;;;;18.07;4.37;;;;;;;;;;513112;28;1373;-76
2024/01/25 00:03:07;;;;;;;20.13;4.93;;;;;;;;;;509723;29;1639;-77
2024/01/25 00:03:23;;;;;;;21.13;5.00;;;;;;;;;;507633;29;1797;-76
2024/01/25 00:03:38;;;;;;;19.13;4.80;;;;;;;;;;507479;29;1805;-77
2024/01/25 00:03:54;;;;;;;19.08;4.70;;;;;;;;;;506944;29;1931;-77
2024/01/25 00:04:09;;;;;;;18.13;4.50;;;;;;;;;;509059;29;2024;-77
2024/01/25 00:04:24;;;;;;;16.55;4.50;;;;;;;;;;508148;29;1416;-77
2024/01/25 00:04:40;;;;;;;18.53;4.83;;;;;;;;;;507888;29;1440;-77
2024/01/25 00:04:55;;;;;;;21.50;5.03;;;;;;;;;;509955;29;1388;-76
2024/01/25 00:05:10;;;;;;;19.40;4.60;;;;;;;;;;510410;28;1412;-77
2024/01/25 00:05:26;;;;;;;19.83;4.57;;;;;;;;;;511741;28;1411;-77
2024/01/25 00:05:41;;;;;;;22.30;5.20;;;;;;;;;;511837;28;1229;-77
2024/01/25 00:05:56;;;;;;;19.58;5.20;;;;;;;;;;510245;28;2371;-77
2024/01/25 00:06:12;;;;;;;19.30;4.90;;;;;;;;;;510265;29;1511;-77
2024/01/25 00:06:27;;;;;;;20.50;5.20;;;;;;;;;;510527;28;1487;-77
2024/01/25 00:06:42;;;;;;;22.73;5.30;;;;;;;;;;508782;28;1684;-77
2024/01/25 00:06:58;;;;;;;22.07;5.10;;;;;;;;;;512318;28;1265;-77
2024/01/25 00:07:13;;;;;;;18.10;4.80;;;;;;;;;;510254;29;1423;-76
2024/01/25 00:07:29;;;;;;;17.77;4.60;;;;;;;;;;509269;29;1813;-77
2024/01/25 00:07:52;;;;;;;19.07;4.63;;;;;;;;;;510080;29;1435;-77
2024/01/25 00:08:07;;;;;;;23.75;5.07;;;;;;;;;;509323;28;1348;-77
2024/01/25 00:08:23;;;;;;;21.30;4.73;;;;;;;;;;512590;28;1363;-77
2024/01/25 00:08:38;;;;;;;19.00;4.67;;;;;;;;;;510054;29;1260;-77
2024/01/25 00:08:53;;;;;;;19.17;4.80;;;;;;;;;;510373;29;1356;-77
2024/01/25 00:09:09;;;;;;;20.23;4.70;;;;;;;;;;511201;28;2276;-76
2024/01/25 00:09:24;;;;;;;19.50;4.80;;;;;;;;;;512201;28;1442;-77
2024/01/25 00:09:39;;;;;;;18.98;4.78;;;;;;;;;;510846;28;1293;-77
2024/01/25 00:09:54;;;;;;;21.30;4.97;;;;;;;;;;510812;29;1415;-77
2024/01/25 00:10:10;;;;;;;19.40;4.80;;;;;;;;;;511662;28;1415;-76
2024/01/25 00:10:25;;;;;;;19.92;4.68;;;;;;;;;;512610;28;1450;-76
2024/01/25 00:10:40;;;;;;;20.10;4.63;;;;;;;;;;512198;28;1363;-76
2024/01/25 00:10:56;;;;;;;18.17;4.77;;;;;;;;;;511928;28;1371;-77
2024/01/25 00:11:11;;;;;;;19.80;4.95;;;;;;;;;;511473;28;2403;-77
2024/01/25 00:11:31;;;;;;;20.80;5.10;;;;;;;;;;512095;28;1344;-77
2024/01/25 00:11:46;;;;;;;21.50;4.82;;;;;;;;;;508990;29;1480;-77
2024/01/25 00:12:02;;;;;;;20.97;4.60;;;;;;;;;;509869;28;1364;-77
2024/01/25 00:12:17;;;;;;;19.58;4.80;;;;;;;;;;509589;29;1929;-76
2024/01/25 00:12:32;;;;;;;19.93;4.67;;;;;;;;;;509705;29;1389;-77
2024/01/25 00:12:48;;;;;;;21.10;4.53;;;;;;;;;;509913;29;1380;-77
2024/01/25 00:13:03;;;;;;;21.17;5.15;;;;;;;;;;508461;29;1515;-77
2024/01/25 00:13:19;;;;;;;22.47;6.60;;;;;;;;;;508485;29;1178;-76
2024/01/25 00:13:34;;;;;;;20.67;6.07;;;;;;;;;;508562;29;1400;-77
2024/01/25 00:13:49;;;;;;;17.95;4.95;;;;;;;;;;509531;29;1844;-77
2024/01/25 00:14:05;;;;;;;17.70;4.87;;;;;;;;;;509484;28;2249;-76
2024/01/25 00:14:20;;;;;;;18.55;4.38;;;;;;;;;;511738;28;1235;-77
2024/01/25 00:14:35;;;;;;;18.70;4.47;;;;;;;;;;512425;28;1447;-77
2024/01/25 00:14:52;;;;;;;17.93;4.63;;;;;;;;;;509963;29;1339;-77
2024/01/25 00:15:08;;;;;;;19.77;4.85;;;;;;;;;;509620;29;1380;-77
2024/01/25 00:15:24;;;;;;;19.48;4.85;;;;;;;;;;508307;29;1234;-77
2024/01/25 00:15:39;;;;;;;19.73;5.05;;;;;;;;;;508833;29;2000;-77
2024/01/25 00:15:55;;;;;;;20.67;4.97;;;;;;;;;;508213;29;2171;-77
2024/01/25 00:16:10;;;;;;;21.15;4.90;;;;;;;;;;507749;29;1345;-77
2024/01/25 00:16:27;;;;;;;19.47;4.80;;;;;;;;;;507892;29;1440;-77
2024/01/25 00:16:43;;;;;;;18.15;4.68;;;;;;;;;;508760;29;1514;-77
2024/01/25 00:16:58;;;;;;;19.25;4.65;;;;;;;;;;510042;29;1364;-77
2024/01/25 00:17:13;;;;;;;21.83;4.93;;;;;;;;;;509895;29;1396;-77
2024/01/25 00:17:29;;;;;;;22.03;5.27;;;;;;;;;;509749;29;1929;-77
2024/01/25 00:17:44;;;;;;;22.77;5.25;;;;;;;;;;510679;28;2246;-77
2024/01/25 00:17:59;;;;;;;22.03;4.87;;;;;;;;;;510449;28;1426;-77
2024/01/25 00:18:15;;;;;;;19.77;4.60;;;;;;;;;;509830;28;1281;-77
2024/01/25 00:18:30;;;;;;;18.15;4.30;;;;;;;;;;511895;28;1538;-77
2024/01/25 00:18:45;;;;;;;15.57;4.27;;;;;;;;;;513099;28;1387;-77
2024/01/25 00:19:01;;;;;;;17.87;4.77;;;;;;;;;;511850;28;1372;-77
2024/01/25 00:19:16;;;;;;;21.17;5.25;;;;;;;;;;511749;28;915;-77
2024/01/25 00:19:33;;;;;;;21.30;5.00;;;;;;;;;;513645;28;1260;-77
2024/01/25 00:19:49;;;;;;;24.08;4.90;;;;;;;;;;515063;28;1073;-77
2024/01/25 00:20:05;;;;;;;23.02;4.82;;;;;;;;;;515013;28;1512;-77
2024/01/25 00:20:20;;;;;;;19.17;4.68;;;;;;;;;;511175;28;1317;-77
2024/01/25 00:20:35;;;;;;;18.53;4.90;;;;;;;;;;510029;29;1796;-77
2024/01/25 00:20:51;;;;;;;19.88;5.03;;;;;;;;;;511124;28;882;-77
2024/01/25 00:21:07;;;;;;;19.77;4.97;;;;;;;;;;509790;29;1210;-77
2024/01/25 00:21:22;;;;;;;18.83;4.95;;;;;;;;;;511120;29;1311;-77
2024/01/25 00:21:44;;;;;;;19.10;4.97;;;;;;;;;;508810;29;1201;-78
2024/01/25 00:21:59;;;;;;;16.63;4.47;;;;;;;;;;509182;29;1445;-77
2024/01/25 00:22:14;;;;;;;18.40;4.50;;;;;;;;;;511241;28;1322;-77
2024/01/25 00:22:30;;;;;;;19.67;4.57;;;;;;;;;;511016;29;1168;-77
2024/01/25 00:22:45;;;;;;;19.65;4.75;;;;;;;;;;510775;29;1003;-77
2024/01/25 00:23:00;;;;;;;19.50;4.77;;;;;;;;;;509187;29;807;-77
2024/01/25 00:23:16;;;;;;;20.93;4.80;;;;;;;;;;507941;29;1066;-77
2024/01/25 00:23:32;;;;;;;21.33;5.10;;;;;;;;;;507153;29;882;-77
2024/01/25 00:23:48;;;;;;;20.73;5.72;;;;;;;;;;507519;29;1331;-76
2024/01/25 00:24:03;;;;;;;21.23;5.97;;;;;;;;;;505235;29;1925;-77
2024/01/25 00:24:18;;;;;;;21.33;5.33;;;;;;;;;;507278;29;1007;-76
2024/01/25 00:24:34;;;;;;;21.50;4.97;;;;;;;;;;507098;29;1346;-77
2024/01/25 00:24:49;;;;;;;21.17;4.67;;;;;;;;;;507337;29;1178;-77
2024/01/25 00:25:06;;;;;;;19.97;4.50;;;;;;;;;;507933;29;1758;-77
2024/01/25 00:25:21;;;;;;;21.13;5.10;;;;;;;;;;508731;29;1692;-77
2024/01/25 00:25:37;;;;;;;20.33;5.43;;;;;;;;;;506064;29;1156;-77
2024/01/25 00:25:52;;;;;;;18.10;4.80;;;;;;;;;;509520;29;930;-77
2024/01/25 00:26:07;;;;;;;18.90;4.50;;;;;;;;;;509325;29;1194;-77
2024/01/25 00:26:23;;;;;;;19.92;4.53;;;;;;;;;;511619;28;891;-77
2024/01/25 00:26:38;;;;;;;18.73;4.53;;;;;;;;;;511524;28;2091;-77
2024/01/25 00:26:53;;;;;;;18.87;4.83;;;;;;;;;;510596;29;1744;-77
2024/01/25 00:27:09;;;;;;;18.63;4.72;;;;;;;;;;510762;29;1737;-77
2024/01/25 00:27:24;;;;;;;16.73;4.40;;;;;;;;;;509243;29;1165;-77
2024/01/25 00:27:39;;;;;;;16.60;4.80;;;;;;;;;;511401;28;1183;-77
2024/01/25 00:27:55;;;;;;;17.92;4.78;;;;;;;;;;513200;28;886;-78
2024/01/25 00:28:10;;;;;;;22.03;4.70;;;;;;;;;;510565;29;1423;-77
2024/01/25 00:28:26;;;;;;;23.80;5.13;;;;;;;;;;509185;29;1120;-77
2024/01/25 00:28:41;;;;;;;21.05;4.80;;;;;;;;;;509813;29;1824;-77
2024/01/25 00:28:57;;;;;;;19.33;4.30;;;;;;;;;;509166;29;1423;-77
2024/01/25 00:29:12;;;;;;;19.63;4.40;;;;;;;;;;509204;29;1014;-77
2024/01/25 00:29:27;;;;;;;21.33;5.00;;;;;;;;;;507869;29;1241;-77
2024/01/25 00:29:43;;;;;;;20.63;5.20;;;;;;;;;;510090;29;1126;-77
2024/01/25 00:29:58;;;;;;;20.00;5.00;;;;;;;;;;511533;28;1203;-77
2024/01/25 00:30:14;;;;;;;18.83;4.57;;;;;;;;;;512444;28;1085;-77
2024/01/25 00:30:29;;;;;;;17.53;4.40;;;;;;;;;;513244;28;830;-77
2024/01/25 00:30:44;;;;;;;18.30;4.65;;;;;;;;;;514823;28;1081;-78
2024/01/25 00:31:00;;;;;;;18.70;4.47;;;;;;;;;;513130;28;1194;-77
2024/01/25 00:31:15;;;;;;;17.77;4.40;;;;;;;;;;515886;28;1161;-77
2024/01/25 00:31:31;;;;;;;17.48;4.50;;;;;;;;;;515033;28;983;-77
2024/01/25 00:31:46;;;;;;;18.40;4.47;;;;;;;;;;511378;28;1195;-77
2024/01/25 00:32:01;;;;;;;18.07;4.63;;;;;;;;;;511259;29;894;-78
2024/01/25 00:32:17;;;;;;;18.00;4.60;;;;;;;;;;511086;28;1077;-77
2024/01/25 00:32:32;;;;;;;19.97;4.47;;;;;;;;;;511044;29;890;-77
2024/01/25 00:32:48;;;;;;;19.93;4.57;;;;;;;;;;512389;28;1137;-77
2024/01/25 00:33:04;;;;;;;18.00;4.60;;;;;;;;;;513026;28;886;-77
2024/01/25 00:33:19;;;;;;;19.60;4.63;;;;;;;;;;511185;28;1302;-77
2024/01/25 00:33:34;;;;;;;20.65;4.50;;;;;;;;;;511454;28;1396;-77
2024/01/25 00:33:50;;;;;;;20.40;4.60;;;;;;;;;;512929;28;1254;-77
2024/01/25 00:34:06;;;;;;;19.83;4.80;;;;;;;;;;512324;28;2030;-77
2024/01/25 00:34:21;;;;;;;19.17;4.90;;;;;;;;;;510367;29;1532;-77
2024/01/25 00:34:37;;;;;;;20.55;4.88;;;;;;;;;;507755;29;1345;-77
2024/01/25 00:34:52;;;;;;;22.13;4.57;;;;;;;;;;507081;29;1192;-77
2024/01/25 00:35:10;;;;;;;20.17;4.60;;;;;;;;;;506854;29;1548;-77
2024/01/25 00:35:25;;;;;;;19.33;4.65;;;;;;;;;;506179;29;1655;-77
2024/01/25 00:35:41;;;;;;;20.15;4.70;;;;;;;;;;509187;29;1789;-77
2024/01/25 00:35:56;;;;;;;20.13;4.67;;;;;;;;;;508952;29;1157;-77
2024/01/25 00:36:12;;;;;;;19.58;4.32;;;;;;;;;;508775;29;1158;-77
2024/01/25 00:36:28;;;;;;;17.42;4.25;;;;;;;;;;510128;29;1319;-77
2024/01/25 00:36:43;;;;;;;18.15;4.57;;;;;;;;;;509667;29;1218;-77
2024/01/25 00:36:59;;;;;;;21.17;4.77;;;;;;;;;;509195;29;915;-77
2024/01/25 00:37:15;;;;;;;20.73;4.63;;;;;;;;;;508060;29;1186;-77
2024/01/25 00:37:30;;;;;;;17.00;4.27;;;;;;;;;;509251;29;1209;-77
2024/01/25 00:37:46;;;;;;;17.88;4.32;;;;;;;;;;511107;29;1304;-77
2024/01/25 00:38:01;;;;;;;21.23;4.67;;;;;;;;;;510081;29;1600;-77
2024/01/25 00:38:17;;;;;;;21.13;4.78;;;;;;;;;;509094;29;939;-77
2024/01/25 00:38:33;;;;;;;19.48;4.82;;;;;;;;;;507632;29;1178;-77
2024/01/25 00:38:48;;;;;;;16.97;4.50;;;;;;;;;;510664;29;1189;-77
2024/01/25 00:39:04;;;;;;;17.77;4.40;;;;;;;;;;510472;29;882;-77
2024/01/25 00:39:20;;;;;;;19.77;4.72;;;;;;;;;;511156;28;1197;-76
2024/01/25 00:39:35;;;;;;;19.30;4.60;;;;;;;;;;512266;28;1293;-77
2024/01/25 00:39:51;;;;;;;19.80;4.68;;;;;;;;;;511052;28;1133;-77
2024/01/25 00:40:08;;;;;;;21.48;4.95;;;;;;;;;;511066;29;1276;-78
2024/01/25 00:40:23;;;;;;;20.77;4.78;;;;;;;;;;513231;28;847;-77
2024/01/25 00:40:39;;;;;;;19.20;4.63;;;;;;;;;;512073;28;1067;-78
2024/01/25 00:40:55;;;;;;;17.95;4.43;;;;;;;;;;508438;29;1751;-78
2024/01/25 00:41:13;;;;;;;20.42;4.57;;;;;;;;;;507634;29;1291;-78
2024/01/25 00:41:32;;;;;;;21.25;4.80;;;;;;;;;;506719;29;1377;-77
2024/01/25 00:41:51;;;;;;;19.10;4.45;;;;;;;;;;508277;29;1287;-78
2024/01/25 00:42:06;;;;;;;18.83;4.38;;;;;;;;;;508181;29;1688;-78
2024/01/25 00:42:23;;;;;;;17.67;4.33;;;;;;;;;;509132;29;1655;-78
2024/01/25 00:42:44;;;;;;;19.67;4.53;;;;;;;;;;509091;29;1150;-77
2024/01/25 00:43:00;;;;;;;21.40;4.78;;;;;;;;;;510585;29;819;-78
2024/01/25 00:43:15;;;;;;;20.65;4.75;;;;;;;;;;510088;28;1169;-78
2024/01/25 00:43:31;;;;;;;20.83;4.70;;;;;;;;;;509235;29;968;-78
2024/01/25 00:43:46;;;;;;;18.95;4.28;;;;;;;;;;510998;28;1371;-78
2024/01/25 00:44:02;;;;;;;17.43;4.27;;;;;;;;;;512386;28;1907;-78
2024/01/25 00:44:18;;;;;;;19.35;4.50;;;;;;;;;;512963;28;1229;-78
2024/01/25 00:44:33;;;;;;;19.25;4.40;;;;;;;;;;514204;28;1622;-77
2024/01/25 00:44:49;;;;;;;16.50;4.40;;;;;;;;;;513316;28;1073;-77
2024/01/25 00:45:05;;;;;;;15.95;4.50;;;;;;;;;;513872;28;1594;-79
2024/01/25 00:45:22;;;;;;;17.73;4.57;;;;;;;;;;515020;28;1275;-78
2024/01/25 00:45:38;;;;;;;18.75;4.78;;;;;;;;;;515573;28;1017;-77
2024/01/25 00:45:53;;;;;;;20.15;4.70;;;;;;;;;;517218;28;1044;-77
2024/01/25 00:46:09;;;;;;;21.27;4.60;;;;;;;;;;516150;28;1005;-78
2024/01/25 00:46:25;;;;;;;19.77;4.90;;;;;;;;;;515065;28;1301;-77
2024/01/25 00:46:40;;;;;;;18.25;4.78;;;;;;;;;;514936;28;926;-86
2024/01/25 00:46:56;;;;;;;17.57;4.43;;;;;;;;;;515146;28;1289;-86
2024/01/25 00:47:11;;;;;;;18.23;4.65;;;;;;;;;;515110;28;1001;-86
2024/01/25 00:47:27;;;;;;;20.17;4.80;;;;;;;;;;515267;28;1052;-86
2024/01/25 00:47:43;;;;;;;19.17;4.43;;;;;;;;;;513094;28;1211;-86
2024/01/25 00:47:58;;;;;;;16.48;4.30;;;;;;;;;;512330;28;1767;-85
2024/01/25 00:48:14;;;;;;;17.93;4.50;;;;;;;;;;511689;28;1259;-87
2024/01/25 00:48:29;;;;;;;20.30;4.78;;;;;;;;;;509223;29;1057;-86
2024/01/25 00:48:45;;;;;;;21.47;5.17;;;;;;;;;;509731;29;1059;-85
2024/01/25 00:49:00;;;;;;;21.25;4.97;;;;;;;;;;511346;29;930;-86
2024/01/25 00:49:16;;;;;;;18.70;4.60;;;;;;;;;;511137;28;866;-87
2024/01/25 00:49:31;;;;;;;18.65;4.50;;;;;;;;;;511498;28;1165;-87
2024/01/25 00:49:47;;;;;;;19.70;4.50;;;;;;;;;;513206;28;1453;-86
2024/01/25 00:50:04;;;;;;;20.10;4.53;;;;;;;;;;511635;28;1317;-85
2024/01/25 00:50:21;;;;;;;20.10;4.47;;;;;;;;;;514745;28;1371;-86
2024/01/25 00:50:37;;;;;;;19.25;4.32;;;;;;;;;;515069;28;1104;-85
2024/01/25 00:50:53;;;;;;;18.73;4.40;;;;;;;;;;513306;28;1372;-87
2024/01/25 00:51:14;;;;;;;16.95;4.45;;;;;;;;;;512839;28;1064;-87
2024/01/25 00:51:30;;;;;;;20.50;4.82;;;;;;;;;;507627;29;851;-86
2024/01/25 00:51:47;;;;;;;20.00;4.77;;;;;;;;;;509178;29;1155;-86
2024/01/25 00:52:04;;;;;;;20.60;4.60;;;;;;;;;;513191;28;949;-86
2024/01/25 00:52:19;;;;;;;20.48;4.60;;;;;;;;;;513257;28;1240;-86
2024/01/25 00:52:35;;;;;;;21.38;4.88;;;;;;;;;;511173;29;1230;-85
2024/01/25 00:52:51;;;;;;;20.80;4.87;;;;;;;;;;513116;28;1196;-86
2024/01/25 00:53:07;;;;;;;18.05;4.50;;;;;;;;;;513108;28;1173;-87
2024/01/25 00:53:22;;;;;;;20.17;4.50;;;;;;;;;;510096;29;1178;-85
2024/01/25 00:53:38;;;;;;;21.50;4.57;;;;;;;;;;509956;29;1329;-86
2024/01/25 00:53:53;;;;;;;20.77;4.78;;;;;;;;;;509132;29;1306;-86
2024/01/25 00:54:09;;;;;;;19.13;4.80;;;;;;;;;;508802;29;984;-86
2024/01/25 00:54:24;;;;;;;18.43;4.63;;;;;;;;;;505431;29;1251;-86
2024/01/25 00:54:40;;;;;;;18.25;4.55;;;;;;;;;;506089;29;1075;-85
2024/01/25 00:54:56;;;;;;;17.20;4.70;;;;;;;;;;507710;29;1196;-86
2024/01/25 00:55:12;;;;;;;18.75;4.72;;;;;;;;;;509028;29;1010;-86
2024/01/25 00:55:27;;;;;;;20.92;4.63;;;;;;;;;;509730;29;1040;-87
2024/01/25 00:55:43;;;;;;;20.58;4.72;;;;;;;;;;509915;29;1360;-86
2024/01/25 00:55:59;;;;;;;21.20;5.00;;;;;;;;;;511071;29;1165;-86
2024/01/25 00:56:14;;;;;;;21.95;4.97;;;;;;;;;;510704;29;1062;-85
2024/01/25 00:56:30;;;;;;;20.55;4.57;;;;;;;;;;509117;29;1209;-87
2024/01/25 00:56:46;;;;;;;22.33;4.50;;;;;;;;;;509373;29;1092;-86
2024/01/25 00:57:01;;;;;;;21.38;4.50;;;;;;;;;;511240;29;1069;-86
2024/01/25 00:57:17;;;;;;;17.00;4.28;;;;;;;;;;511119;28;1023;-86
2024/01/25 00:57:32;;;;;;;17.53;4.60;;;;;;;;;;509547;29;1258;-86
2024/01/25 00:57:48;;;;;;;18.05;4.35;;;;;;;;;;510587;29;1251;-86
2024/01/25 00:58:03;;;;;;;17.33;4.10;;;;;;;;;;508014;29;1816;-86
2024/01/25 00:58:19;;;;;;;22.20;4.97;;;;;;;;;;510650;29;1178;-86
2024/01/25 00:58:35;;;;;;;21.25;5.35;;;;;;;;;;509137;29;1158;-86
2024/01/25 00:58:50;;;;;;;18.67;5.57;;;;;;;;;;511420;28;1227;-86
2024/01/25 00:59:06;;;;;;;18.40;5.13;;;;;;;;;;509611;29;1293;-86
2024/01/25 00:59:21;;;;;;;18.60;4.40;;;;;;;;;;511718;28;831;-86
2024/01/25 00:59:37;;;;;;;18.95;4.53;;;;;;;;;;511397;28;1165;-86
2024/01/25 00:59:52;;;;;;;20.07;4.83;;;;;;;;;;511260;29;1261;-85
2024/01/25 01:00:10;;;;;;;19.88;4.72;;;;;;;;;;510824;28;2439;-86
2024/01/25 01:00:25;;;;;;;18.83;4.50;;;;;;;;;;511195;29;1913;-86
2024/01/25 01:00:41;;;;;;;19.67;4.72;;;;;;;;;;510126;29;1870;-86
2024/01/25 01:00:56;;;;;;;17.63;4.90;;;;;;;;;;509822;29;1125;-86
2024/01/25 01:01:12;;;;;;;18.38;4.80;;;;;;;;;;509945;29;1213;-86
2024/01/25 01:01:28;;;;;;;18.30;4.45;;;;;;;;;;511905;28;914;-86
2024/01/25 01:01:46;;;;;;;17.27;4.23;;;;;;;;;;511227;28;1317;-86
2024/01/25 01:02:05;;;;;;;19.02;4.35;;;;;;;;;;510317;29;1088;-86
2024/01/25 01:02:22;;;;;;;19.52;4.47;;;;;;;;;;513143;28;1113;-86
2024/01/25 01:02:43;;;;;;;20.63;5.00;;;;;;;;;;513258;28;1101;-86
2024/01/25 01:03:03;;;;;;;21.70;5.00;;;;;;;;;;512185;28;1257;-86
2024/01/25 01:03:19;;;;;;;20.27;4.45;;;;;;;;;;512924;28;1264;-87
2024/01/25 01:03:35;;;;;;;22.73;4.75;;;;;;;;;;513797;28;1264;-86
2024/01/25 01:03:52;;;;;;;21.53;4.80;;;;;;;;;;514785;28;1771;-85
2024/01/25 01:04:08;;;;;;;21.95;4.78;;;;;;;;;;513466;28;1289;-86
2024/01/25 01:04:24;;;;;;;21.10;4.88;;;;;;;;;;513041;28;1264;-86
2024/01/25 01:04:40;;;;;;;20.03;5.00;;;;;;;;;;510962;29;1182;-86
2024/01/25 01:04:57;;;;;;;19.80;4.65;;;;;;;;;;511220;28;874;-86
2024/01/25 01:05:13;;;;;;;18.20;4.20;;;;;;;;;;510269;29;1217;-86
2024/01/25 01:05:28;;;;;;;19.30;4.47;;;;;;;;;;507158;29;1191;-85
2024/01/25 01:05:44;;;;;;;19.77;4.60;;;;;;;;;;508317;29;1176;-86
2024/01/25 01:05:59;;;;;;;20.30;4.55;;;;;;;;;;509628;29;1218;-86
2024/01/25 01:06:15;;;;;;;18.97;4.33;;;;;;;;;;510649;29;808;-85
2024/01/25 01:06:31;;;;;;;17.85;4.10;;;;;;;;;;509105;29;1174;-86
2024/01/25 01:06:47;;;;;;;19.90;4.40;;;;;;;;;;508846;29;1226;-87
2024/01/25 01:07:03;;;;;;;20.38;4.50;;;;;;;;;;507799;29;1396;-86
2024/01/25 01:07:19;;;;;;;17.85;4.35;;;;;;;;;;507979;29;1179;-85
2024/01/25 01:07:34;;;;;;;20.13;5.07;;;;;;;;;;509212;29;1064;-87
2024/01/25 01:07:50;;;;;;;20.63;5.13;;;;;;;;;;508681;29;1094;-86
2024/01/25 01:08:06;;;;;;;20.50;4.70;;;;;;;;;;507274;29;1300;-87
2024/01/25 01:08:22;;;;;;;19.60;4.53;;;;;;;;;;505753;29;1382;-85
2024/01/25 01:08:37;;;;;;;16.57;4.40;;;;;;;;;;507421;29;1138;-86
2024/01/25 01:08:53;;;;;;;18.13;4.60;;;;;;;;;;511695;28;1297;-86
2024/01/25 01:09:08;;;;;;;23.93;5.13;;;;;;;;;;512946;28;1260;-85
2024/01/25 01:09:24;;;;;;;22.80;4.93;;;;;;;;;;511245;29;866;-86
2024/01/25 01:09:39;;;;;;;19.20;4.32;;;;;;;;;;511657;28;1149;-86
2024/01/25 01:09:54;;;;;;;19.80;4.57;;;;;;;;;;513685;28;819;-87
2024/01/25 01:10:10;;;;;;;19.33;4.50;;;;;;;;;;514747;28;1053;-86
2024/01/25 01:10:25;;;;;;;18.42;4.25;;;;;;;;;;513152;28;851;-86
2024/01/25 01:10:41;;;;;;;18.73;4.50;;;;;;;;;;511019;29;1184;-85
2024/01/25 01:10:56;;;;;;;18.53;4.60;;;;;;;;;;511384;28;1138;-85
2024/01/25 01:11:11;;;;;;;17.98;4.43;;;;;;;;;;511134;28;1257;-87
2024/01/25 01:11:27;;;;;;;20.73;4.97;;;;;;;;;;511664;29;981;-87
2024/01/25 01:11:42;;;;;;;20.10;5.07;;;;;;;;;;511327;28;1174;-86
2024/01/25 01:11:58;;;;;;;20.53;4.73;;;;;;;;;;511667;29;895;-86
2024/01/25 01:12:13;;;;;;;21.33;4.55;;;;;;;;;;510455;29;1406;-86
2024/01/25 01:12:30;;;;;;;19.47;4.47;;;;;;;;;;511438;28;1307;-85
2024/01/25 01:12:45;;;;;;;18.13;4.50;;;;;;;;;;510189;28;1822;-86
2024/01/25 01:13:00;;;;;;;18.80;4.50;;;;;;;;;;506383;29;1190;-86
2024/01/25 01:13:15;;;;;;;20.50;4.60;;;;;;;;;;508617;29;1234;-87
2024/01/25 01:13:31;;;;;;;18.57;4.33;;;;;;;;;;508035;29;1010;-86
2024/01/25 01:13:46;;;;;;;18.83;4.40;;;;;;;;;;510066;29;2038;-86
2024/01/25 01:14:02;;;;;;;21.77;4.67;;;;;;;;;;509771;29;1909;-85
2024/01/25 01:14:17;;;;;;;19.60;4.55;;;;;;;;;;511180;29;1676;-86
2024/01/25 01:14:33;;;;;;;17.70;4.60;;;;;;;;;;511203;29;1177;-86
2024/01/25 01:14:48;;;;;;;16.90;4.43;;;;;;;;;;509635;29;1330;-85
2024/01/25 01:15:04;;;;;;;16.30;4.30;;;;;;;;;;513601;28;1110;-86
2024/01/25 01:15:19;;;;;;;17.17;4.50;;;;;;;;;;513322;28;1280;-86
2024/01/25 01:15:35;;;;;;;16.52;4.13;;;;;;;;;;513374;28;1173;-85
2024/01/25 01:15:50;;;;;;;15.80;3.80;;;;;;;;;;511569;28;1309;-84
2024/01/25 01:16:06;;;;;;;16.40;4.07;;;;;;;;;;507577;29;1245;-85
2024/01/25 01:16:21;;;;;;;18.58;4.45;;;;;;;;;;510427;29;1330;-85
2024/01/25 01:16:36;;;;;;;19.27;4.40;;;;;;;;;;511216;29;1214;-85
2024/01/25 01:16:52;;;;;;;18.93;4.30;;;;;;;;;;511335;29;767;-85
2024/01/25 01:17:08;;;;;;;17.17;4.22;;;;;;;;;;513167;28;1245;-85
2024/01/25 01:17:23;;;;;;;15.18;4.13;;;;;;;;;;509535;29;1278;-86
2024/01/25 01:17:38;;;;;;;18.37;4.43;;;;;;;;;;509109;29;1608;-84
2024/01/25 01:17:53;;;;;;;19.03;4.40;;;;;;;;;;507401;29;1828;-85
2024/01/25 01:18:09;;;;;;;15.40;4.15;;;;;;;;;;507584;29;1598;-84
2024/01/25 01:18:24;;;;;;;16.37;4.30;;;;;;;;;;507543;29;1221;-86
2024/01/25 01:18:39;;;;;;;17.80;4.43;;;;;;;;;;507305;29;1256;-84
2024/01/25 01:18:55;;;;;;;18.42;4.30;;;;;;;;;;507861;29;788;-84
2024/01/25 01:19:10;;;;;;;18.90;4.07;;;;;;;;;;509380;29;1158;-85
2024/01/25 01:19:25;;;;;;;19.07;4.07;;;;;;;;;;509656;29;1045;-85
2024/01/25 01:19:41;;;;;;;20.07;4.67;;;;;;;;;;509601;29;1189;-86
2024/01/25 01:19:56;;;;;;;19.40;4.75;;;;;;;;;;511513;29;882;-86
2024/01/25 01:20:11;;;;;;;18.10;4.43;;;;;;;;;;511611;28;1338;-85
2024/01/25 01:20:27;;;;;;;17.70;4.45;;;;;;;;;;511516;29;1349;-85
2024/01/25 01:20:42;;;;;;;17.30;4.40;;;;;;;;;;509467;29;1272;-85
2024/01/25 01:20:57;;;;;;;17.13;4.17;;;;;;;;;;509602;29;1045;-85
2024/01/25 01:21:12;;;;;;;18.33;4.10;;;;;;;;;;510355;29;1007;-84
2024/01/25 01:21:28;;;;;;;18.27;4.22;;;;;;;;;;509608;29;1920;-85
2024/01/25 01:21:43;;;;;;;16.70;4.27;;;;;;;;;;508747;29;1153;-84
2024/01/25 01:21:59;;;;;;;16.70;4.23;;;;;;;;;;507832;29;1295;-85
2024/01/25 01:22:14;;;;;;;16.90;4.20;;;;;;;;;;509684;29;1222;-86
2024/01/25 01:22:29;;;;;;;17.73;4.30;;;;;;;;;;510600;29;1048;-85
2024/01/25 01:22:45;;;;;;;17.23;4.38;;;;;;;;;;511406;28;1052;-84
2024/01/25 01:23:00;;;;;;;18.80;4.50;;;;;;;;;;511478;29;981;-86
2024/01/25 01:23:15;;;;;;;20.03;4.77;;;;;;;;;;512872;28;966;-85
2024/01/25 01:23:30;;;;;;;18.83;4.93;;;;;;;;;;512829;28;889;-86
2024/01/25 01:23:46;;;;;;;20.00;5.35;;;;;;;;;;511671;28;1078;-84
2024/01/25 01:24:02;;;;;;;20.13;4.93;;;;;;;;;;513602;28;1988;-85
2024/01/25 01:24:17;;;;;;;17.90;4.35;;;;;;;;;;516926;28;1001;-85
2024/01/25 01:24:32;;;;;;;17.90;4.30;;;;;;;;;;517488;28;1222;-85
2024/01/25 01:24:47;;;;;;;20.10;4.40;;;;;;;;;;517325;28;1147;-85
2024/01/25 01:25:03;;;;;;;19.40;4.37;;;;;;;;;;517062;28;1760;-86
2024/01/25 01:25:18;;;;;;;18.00;4.30;;;;;;;;;;514391;28;1345;-86
2024/01/25 01:25:34;;;;;;;17.58;4.32;;;;;;;;;;513410;28;926;-86
2024/01/25 01:25:49;;;;;;;18.53;4.40;;;;;;;;;;513278;28;748;-85
2024/01/25 01:26:05;;;;;;;20.40;4.70;;;;;;;;;;509553;29;1183;-85
2024/01/25 01:26:20;;;;;;;20.07;4.47;;;;;;;;;;509626;29;1129;-85
2024/01/25 01:26:36;;;;;;;17.30;4.10;;;;;;;;;;507791;29;1264;-86
2024/01/25 01:26:51;;;;;;;18.10;4.50;;;;;;;;;;509244;29;1200;-85
2024/01/25 01:27:07;;;;;;;19.38;4.63;;;;;;;;;;509655;28;1390;-85
2024/01/25 01:27:22;;;;;;;19.00;4.53;;;;;;;;;;513491;28;1456;-86
2024/01/25 01:27:37;;;;;;;16.77;4.43;;;;;;;;;;513165;28;1057;-85
2024/01/25 01:27:52;;;;;;;16.00;4.38;;;;;;;;;;511861;28;1290;-85
2024/01/25 01:28:08;;;;;;;19.17;4.57;;;;;;;;;;513730;28;827;-85
2024/01/25 01:28:23;;;;;;;19.87;4.43;;;;;;;;;;515813;28;807;-85
2024/01/25 01:28:38;;;;;;;19.42;4.40;;;;;;;;;;515038;28;1314;-85
2024/01/25 01:28:54;;;;;;;19.87;4.80;;;;;;;;;;513553;28;866;-84
2024/01/25 01:29:09;;;;;;;18.03;4.50;;;;;;;;;;510360;28;1545;-84
2024/01/25 01:29:25;;;;;;;18.50;4.53;;;;;;;;;;509696;29;780;-85
2024/01/25 01:29:41;;;;;;;20.70;4.80;;;;;;;;;;509682;29;1134;-85
2024/01/25 01:29:56;;;;;;;18.80;4.43;;;;;;;;;;511497;29;851;-83
2024/01/25 01:30:11;;;;;;;16.50;4.00;;;;;;;;;;511441;28;2215;-85
2024/01/25 01:30:27;;;;;;;17.48;4.40;;;;;;;;;;511726;28;1049;-84
2024/01/25 01:30:42;;;;;;;18.53;4.60;;;;;;;;;;513366;28;1030;-85
2024/01/25 01:30:57;;;;;;;17.98;4.63;;;;;;;;;;511634;28;1181;-85
2024/01/25 01:31:13;;;;;;;15.97;4.57;;;;;;;;;;514127;28;1154;-84
2024/01/25 01:31:28;;;;;;;15.50;4.60;;;;;;;;;;515448;28;1000;-86
2024/01/25 01:31:44;;;;;;;16.17;4.45;;;;;;;;;;515056;28;1029;-85
2024/01/25 01:31:59;;;;;;;15.80;4.13;;;;;;;;;;515391;28;1230;-85
2024/01/25 01:32:14;;;;;;;18.27;4.60;;;;;;;;;;514474;28;1096;-85
2024/01/25 01:32:30;;;;;;;19.77;4.67;;;;;;;;;;513388;28;1072;-85
2024/01/25 01:32:45;;;;;;;19.30;4.67;;;;;;;;;;513579;28;1294;-84
2024/01/25 01:33:00;;;;;;;18.53;4.57;;;;;;;;;;513735;28;1822;-86
2024/01/25 01:33:16;;;;;;;21.08;4.78;;;;;;;;;;512674;28;874;-85
2024/01/25 01:33:31;;;;;;;21.98;5.03;;;;;;;;;;513422;28;831;-85
2024/01/25 01:33:47;;;;;;;19.83;4.57;;;;;;;;;;515124;28;1169;-86
2024/01/25 01:34:02;;;;;;;19.80;4.33;;;;;;;;;;513724;28;1021;-86
2024/01/25 01:34:17;;;;;;;18.15;4.22;;;;;;;;;;512966;28;1212;-86
2024/01/25 01:34:33;;;;;;;17.07;4.20;;;;;;;;;;515519;28;1328;-86
2024/01/25 01:34:48;;;;;;;17.43;4.30;;;;;;;;;;515498;28;1077;-86
2024/01/25 01:35:04;;;;;;;22.30;4.63;;;;;;;;;;513512;28;1232;-85
2024/01/25 01:35:19;;;;;;;23.30;4.63;;;;;;;;;;511630;28;1239;-84
2024/01/25 01:35:35;;;;;;;20.53;4.60;;;;;;;;;;511014;29;1614;-86